sensor_id;sensor_type;location;lat;lon;timestamp;temperature;humidity
65374;SHT31;52070;53.760;9.678;2022-11-11T00:00:34;12.65;77.89
65374;SHT31;52070;53.760;9.678;2022-11-11T00:03:01;12.71;77.81
65374;SHT31;52070;53.760;9.678;2022-11-11T00:05:28;12.64;77.98
65374;SHT31;52070;53.760;9.678;2022-11-11T00:07:56;12.64;78.01
65374;SHT31;52070;53.760;9.678;2022-11-11T00:10:24;12.54;78.36
65374;SHT31;52070;53.760;9.678;2022-11-11T00:12:51;12.54;78.39
65374;SHT31;52070;53.760;9.678;2022-11-11T00:15:18;12.52;78.54
65374;SHT31;52070;53.760;9.678;2022-11-11T00:17:45;12.52;78.60
65374;SHT31;52070;53.760;9.678;2022-11-11T00:20:30;12.52;78.51
65374;SHT31;52070;53.760;9.678;2022-11-11T00:23:20;12.51;78.51
65374;SHT31;52070;53.760;9.678;2022-11-11T00:26:04;12.48;78.58
65374;SHT31;52070;53.760;9.678;2022-11-11T00:28:32;12.45;78.79
65374;SHT31;52070;53.760;9.678;2022-11-11T00:31:03;12.42;79.06
65374;SHT31;52070;53.760;9.678;2022-11-11T00:33:30;12.45;78.96
65374;SHT31;52070;53.760;9.678;2022-11-11T00:35:57;12.41;78.90
65374;SHT31;52070;53.760;9.678;2022-11-11T00:38:24;12.42;79.00
65374;SHT31;52070;53.760;9.678;2022-11-11T00:41:09;12.42;79.09
65374;SHT31;52070;53.760;9.678;2022-11-11T00:43:36;12.45;79.04
65374;SHT31;52070;53.760;9.678;2022-11-11T00:46:04;12.40;79.05
65374;SHT31;52070;53.760;9.678;2022-11-11T00:48:48;12.42;79.22
65374;SHT31;52070;53.760;9.678;2022-11-11T00:51:33;12.40;79.20
65374;SHT31;52070;53.760;9.678;2022-11-11T00:54:01;12.44;79.19
65374;SHT31;52070;53.760;9.678;2022-11-11T00:56:28;12.44;79.21
65374;SHT31;52070;53.760;9.678;2022-11-11T00:58:55;12.44;79.28
65374;SHT31;52070;53.760;9.678;2022-11-11T01:01:22;12.42;79.38
65374;SHT31;52070;53.760;9.678;2022-11-11T01:03:49;12.42;79.47
65374;SHT31;52070;53.760;9.678;2022-11-11T01:06:16;12.45;79.31
65374;SHT31;52070;53.760;9.678;2022-11-11T01:08:43;12.47;79.35
65374;SHT31;52070;53.760;9.678;2022-11-11T01:11:16;12.45;79.50
65374;SHT31;52070;53.760;9.678;2022-11-11T01:13:43;12.45;79.44
65374;SHT31;52070;53.760;9.678;2022-11-11T01:16:12;12.45;79.52
65374;SHT31;52070;53.760;9.678;2022-11-11T01:18:40;12.45;79.41
65374;SHT31;52070;53.760;9.678;2022-11-11T01:21:11;12.48;79.48
65374;SHT31;52070;53.760;9.678;2022-11-11T01:23:40;12.42;79.58
65374;SHT31;52070;53.760;9.678;2022-11-11T01:26:11;12.47;79.71
65374;SHT31;52070;53.760;9.678;2022-11-11T01:28:41;12.45;79.64
65374;SHT31;52070;53.760;9.678;2022-11-11T01:31:10;12.44;79.81
65374;SHT31;52070;53.760;9.678;2022-11-11T01:33:37;12.42;79.89
65374;SHT31;52070;53.760;9.678;2022-11-11T01:36:06;12.44;79.80
65374;SHT31;52070;53.760;9.678;2022-11-11T01:38:34;12.40;79.91
65374;SHT31;52070;53.760;9.678;2022-11-11T01:41:01;12.41;80.00
65374;SHT31;52070;53.760;9.678;2022-11-11T01:43:51;12.35;80.02
65374;SHT31;52070;53.760;9.678;2022-11-11T01:46:25;12.37;80.21
65374;SHT31;52070;53.760;9.678;2022-11-11T01:48:56;12.34;80.27
65374;SHT31;52070;53.760;9.678;2022-11-11T01:51:46;12.38;80.36
65374;SHT31;52070;53.760;9.678;2022-11-11T01:54:18;12.35;80.10
65374;SHT31;52070;53.760;9.678;2022-11-11T01:56:50;12.37;80.24
65374;SHT31;52070;53.760;9.678;2022-11-11T01:59:20;12.41;80.12
65374;SHT31;52070;53.760;9.678;2022-11-11T02:01:47;12.42;80.11
65374;SHT31;52070;53.760;9.678;2022-11-11T02:04:14;12.37;80.26
65374;SHT31;52070;53.760;9.678;2022-11-11T02:07:03;12.37;80.36
65374;SHT31;52070;53.760;9.678;2022-11-11T02:09:31;12.35;80.33
65374;SHT31;52070;53.760;9.678;2022-11-11T02:12:02;12.38;80.47
65374;SHT31;52070;53.760;9.678;2022-11-11T02:14:53;12.40;80.54
65374;SHT31;52070;53.760;9.678;2022-11-11T02:17:22;12.40;80.44
65374;SHT31;52070;53.760;9.678;2022-11-11T02:19:53;12.41;80.47
65374;SHT31;52070;53.760;9.678;2022-11-11T02:22:26;12.42;80.43
65374;SHT31;52070;53.760;9.678;2022-11-11T02:24:56;12.42;80.49
65374;SHT31;52070;53.760;9.678;2022-11-11T02:27:25;12.40;80.64
65374;SHT31;52070;53.760;9.678;2022-11-11T02:29:55;12.38;80.68
65374;SHT31;52070;53.760;9.678;2022-11-11T02:32:23;12.42;80.68
65374;SHT31;52070;53.760;9.678;2022-11-11T02:34:50;12.42;80.56
65374;SHT31;52070;53.760;9.678;2022-11-11T02:37:20;12.45;80.54
65374;SHT31;52070;53.760;9.678;2022-11-11T02:39:49;12.47;80.64
65374;SHT31;52070;53.760;9.678;2022-11-11T02:42:20;12.42;80.66
65374;SHT31;52070;53.760;9.678;2022-11-11T02:44:48;12.44;80.77
65374;SHT31;52070;53.760;9.678;2022-11-11T02:47:15;12.48;80.66
65374;SHT31;52070;53.760;9.678;2022-11-11T02:49:42;12.48;80.67
65374;SHT31;52070;53.760;9.678;2022-11-11T02:52:08;12.47;80.51
65374;SHT31;52070;53.760;9.678;2022-11-11T02:54:35;12.48;80.55
65374;SHT31;52070;53.760;9.678;2022-11-11T02:57:04;12.48;80.67
65374;SHT31;52070;53.760;9.678;2022-11-11T02:59:37;12.49;80.56
65374;SHT31;52070;53.760;9.678;2022-11-11T03:02:04;12.44;80.65
65374;SHT31;52070;53.760;9.678;2022-11-11T03:04:32;12.41;80.88
65374;SHT31;52070;53.760;9.678;2022-11-11T03:06:59;12.37;80.83
65374;SHT31;52070;53.760;9.678;2022-11-11T03:09:26;12.33;81.02
65374;SHT31;52070;53.760;9.678;2022-11-11T03:11:53;12.34;80.96
65374;SHT31;52070;53.760;9.678;2022-11-11T03:14:20;12.31;80.86
65374;SHT31;52070;53.760;9.678;2022-11-11T03:16:49;12.24;81.00
65374;SHT31;52070;53.760;9.678;2022-11-11T03:19:34;12.23;81.14
65374;SHT31;52070;53.760;9.678;2022-11-11T03:22:01;12.21;81.23
65374;SHT31;52070;53.760;9.678;2022-11-11T03:24:29;12.21;81.27
65374;SHT31;52070;53.760;9.678;2022-11-11T03:27:10;12.16;81.37
65374;SHT31;52070;53.760;9.678;2022-11-11T03:29:37;12.13;81.33
65374;SHT31;52070;53.760;9.678;2022-11-11T03:32:07;12.16;81.45
65374;SHT31;52070;53.760;9.678;2022-11-11T03:34:35;12.16;81.36
65374;SHT31;52070;53.760;9.678;2022-11-11T03:37:03;12.10;81.55
65374;SHT31;52070;53.760;9.678;2022-11-11T03:39:48;12.10;81.76
65374;SHT31;52070;53.760;9.678;2022-11-11T03:42:15;12.12;81.70
65374;SHT31;52070;53.760;9.678;2022-11-11T03:44:42;12.13;81.80
65374;SHT31;52070;53.760;9.678;2022-11-11T03:47:10;12.10;81.80
65374;SHT31;52070;53.760;9.678;2022-11-11T03:49:37;12.08;81.86
65374;SHT31;52070;53.760;9.678;2022-11-11T03:52:04;12.03;82.08
65374;SHT31;52070;53.760;9.678;2022-11-11T03:54:31;12.06;82.15
65374;SHT31;52070;53.760;9.678;2022-11-11T03:56:58;12.07;82.15
65374;SHT31;52070;53.760;9.678;2022-11-11T03:59:39;12.12;82.15
65374;SHT31;52070;53.760;9.678;2022-11-11T04:02:07;12.08;82.07
65374;SHT31;52070;53.760;9.678;2022-11-11T04:04:54;12.01;82.22
65374;SHT31;52070;53.760;9.678;2022-11-11T04:07:38;12.06;82.17
65374;SHT31;52070;53.760;9.678;2022-11-11T04:10:23;12.06;82.28
65374;SHT31;52070;53.760;9.678;2022-11-11T04:12:51;12.00;82.30
65374;SHT31;52070;53.760;9.678;2022-11-11T04:15:36;12.03;82.41
65374;SHT31;52070;53.760;9.678;2022-11-11T04:18:21;12.03;82.40
65374;SHT31;52070;53.760;9.678;2022-11-11T04:21:17;11.98;82.56
65374;SHT31;52070;53.760;9.678;2022-11-11T04:24:02;11.98;82.57
65374;SHT31;52070;53.760;9.678;2022-11-11T04:26:49;12.00;82.53
65374;SHT31;52070;53.760;9.678;2022-11-11T04:29:15;11.98;82.45
65374;SHT31;52070;53.760;9.678;2022-11-11T04:31:58;11.97;82.44
65374;SHT31;52070;53.760;9.678;2022-11-11T04:34:45;11.93;82.52
65374;SHT31;52070;53.760;9.678;2022-11-11T04:37:15;11.90;82.52
65374;SHT31;52070;53.760;9.678;2022-11-11T04:39:42;11.89;82.67
65374;SHT31;52070;53.760;9.678;2022-11-11T04:42:28;11.84;82.67
65374;SHT31;52070;53.760;9.678;2022-11-11T04:44:56;11.80;82.77
65374;SHT31;52070;53.760;9.678;2022-11-11T04:47:53;11.80;82.88
65374;SHT31;52070;53.760;9.678;2022-11-11T04:50:20;11.76;82.92
65374;SHT31;52070;53.760;9.678;2022-11-11T04:52:49;11.76;83.00
65374;SHT31;52070;53.760;9.678;2022-11-11T04:55:16;11.76;83.01
65374;SHT31;52070;53.760;9.678;2022-11-11T04:58:01;11.72;82.96
65374;SHT31;52070;53.760;9.678;2022-11-11T05:00:28;11.73;83.07
65374;SHT31;52070;53.760;9.678;2022-11-11T05:02:55;11.67;83.05
65374;SHT31;52070;53.760;9.678;2022-11-11T05:05:41;11.62;83.15
65374;SHT31;52070;53.760;9.678;2022-11-11T05:08:27;11.62;83.29
65374;SHT31;52070;53.760;9.678;2022-11-11T05:11:12;11.66;83.27
65374;SHT31;52070;53.760;9.678;2022-11-11T05:13:39;11.58;83.26
65374;SHT31;52070;53.760;9.678;2022-11-11T05:16:26;11.59;83.45
65374;SHT31;52070;53.760;9.678;2022-11-11T05:19:13;11.59;83.46
65374;SHT31;52070;53.760;9.678;2022-11-11T05:22:15;11.56;83.47
65374;SHT31;52070;53.760;9.678;2022-11-11T05:24:45;11.58;83.70
65374;SHT31;52070;53.760;9.678;2022-11-11T05:27:29;11.56;83.61
65374;SHT31;52070;53.760;9.678;2022-11-11T05:29:56;11.56;83.67
65374;SHT31;52070;53.760;9.678;2022-11-11T05:32:23;11.59;83.65
65374;SHT31;52070;53.760;9.678;2022-11-11T05:34:51;11.59;83.62
65374;SHT31;52070;53.760;9.678;2022-11-11T05:37:18;11.55;83.57
65374;SHT31;52070;53.760;9.678;2022-11-11T05:39:46;11.51;83.70
65374;SHT31;52070;53.760;9.678;2022-11-11T05:42:14;11.46;83.77
65374;SHT31;52070;53.760;9.678;2022-11-11T05:44:41;11.44;83.79
65374;SHT31;52070;53.760;9.678;2022-11-11T05:47:08;11.43;83.85
65374;SHT31;52070;53.760;9.678;2022-11-11T05:49:35;11.44;83.80
65374;SHT31;52070;53.760;9.678;2022-11-11T05:52:02;11.39;83.88
65374;SHT31;52070;53.760;9.678;2022-11-11T05:54:30;11.39;83.93
65374;SHT31;52070;53.760;9.678;2022-11-11T05:56:58;11.32;84.01
65374;SHT31;52070;53.760;9.678;2022-11-11T05:59:25;11.29;84.14
65374;SHT31;52070;53.760;9.678;2022-11-11T06:01:53;11.31;84.15
65374;SHT31;52070;53.760;9.678;2022-11-11T06:04:20;11.23;84.30
65374;SHT31;52070;53.760;9.678;2022-11-11T06:06:47;11.21;84.48
65374;SHT31;52070;53.760;9.678;2022-11-11T06:09:14;11.15;84.65
65374;SHT31;52070;53.760;9.678;2022-11-11T06:11:40;11.16;84.69
65374;SHT31;52070;53.760;9.678;2022-11-11T06:14:09;11.16;84.67
65374;SHT31;52070;53.760;9.678;2022-11-11T06:16:36;11.08;84.78
65374;SHT31;52070;53.760;9.678;2022-11-11T06:19:03;11.11;84.94
65374;SHT31;52070;53.760;9.678;2022-11-11T06:21:30;11.11;85.00
65374;SHT31;52070;53.760;9.678;2022-11-11T06:24:17;11.11;85.00
65374;SHT31;52070;53.760;9.678;2022-11-11T06:26:44;11.07;84.98
65374;SHT31;52070;53.760;9.678;2022-11-11T06:29:13;11.04;85.06
65374;SHT31;52070;53.760;9.678;2022-11-11T06:31:40;11.05;85.04
65374;SHT31;52070;53.760;9.678;2022-11-11T06:34:07;11.05;84.98
65374;SHT31;52070;53.760;9.678;2022-11-11T06:36:33;11.02;84.91
65374;SHT31;52070;53.760;9.678;2022-11-11T06:39:00;11.02;85.06
65374;SHT31;52070;53.760;9.678;2022-11-11T06:41:27;11.04;85.03
65374;SHT31;52070;53.760;9.678;2022-11-11T06:43:54;11.05;84.87
65374;SHT31;52070;53.760;9.678;2022-11-11T06:46:24;11.11;84.74
65374;SHT31;52070;53.760;9.678;2022-11-11T06:48:51;11.04;84.78
65374;SHT31;52070;53.760;9.678;2022-11-11T06:51:19;11.01;84.93
65374;SHT31;52070;53.760;9.678;2022-11-11T06:53:46;10.98;85.07
65374;SHT31;52070;53.760;9.678;2022-11-11T06:56:13;10.95;85.24
65374;SHT31;52070;53.760;9.678;2022-11-11T06:58:40;10.99;85.31
65374;SHT31;52070;53.760;9.678;2022-11-11T07:01:08;10.97;85.34
65374;SHT31;52070;53.760;9.678;2022-11-11T07:03:37;10.94;85.45
65374;SHT31;52070;53.760;9.678;2022-11-11T07:06:04;10.94;85.66
65374;SHT31;52070;53.760;9.678;2022-11-11T07:08:31;10.89;85.79
65374;SHT31;52070;53.760;9.678;2022-11-11T07:10:58;10.95;85.76
65374;SHT31;52070;53.760;9.678;2022-11-11T07:13:26;10.91;85.64
65374;SHT31;52070;53.760;9.678;2022-11-11T07:15:53;10.92;85.74
65374;SHT31;52070;53.760;9.678;2022-11-11T07:18:20;10.91;85.80
65374;SHT31;52070;53.760;9.678;2022-11-11T07:20:49;10.92;85.78
65374;SHT31;52070;53.760;9.678;2022-11-11T07:23:16;10.94;85.85
65374;SHT31;52070;53.760;9.678;2022-11-11T07:25:43;10.84;85.84
65374;SHT31;52070;53.760;9.678;2022-11-11T07:28:10;10.88;86.02
65374;SHT31;52070;53.760;9.678;2022-11-11T07:30:37;10.91;86.03
65374;SHT31;52070;53.760;9.678;2022-11-11T07:33:05;10.88;86.05
65374;SHT31;52070;53.760;9.678;2022-11-11T07:35:32;10.87;85.90
65374;SHT31;52070;53.760;9.678;2022-11-11T07:38:01;10.85;86.02
65374;SHT31;52070;53.760;9.678;2022-11-11T07:40:27;10.85;86.13
65374;SHT31;52070;53.760;9.678;2022-11-11T07:42:54;10.91;85.96
65374;SHT31;52070;53.760;9.678;2022-11-11T07:45:21;10.91;85.98
65374;SHT31;52070;53.760;9.678;2022-11-11T07:47:48;10.91;85.84
65374;SHT31;52070;53.760;9.678;2022-11-11T07:50:15;10.91;85.96
65374;SHT31;52070;53.760;9.678;2022-11-11T07:52:47;10.84;85.98
65374;SHT31;52070;53.760;9.678;2022-11-11T07:55:16;10.82;86.20
65374;SHT31;52070;53.760;9.678;2022-11-11T07:57:43;10.81;86.32
65374;SHT31;52070;53.760;9.678;2022-11-11T08:00:11;10.81;86.32
65374;SHT31;52070;53.760;9.678;2022-11-11T08:02:38;10.84;86.23
65374;SHT31;52070;53.760;9.678;2022-11-11T08:05:06;10.81;86.28
65374;SHT31;52070;53.760;9.678;2022-11-11T08:07:33;10.82;86.34
65374;SHT31;52070;53.760;9.678;2022-11-11T08:10:00;10.84;86.37
65374;SHT31;52070;53.760;9.678;2022-11-11T08:12:29;10.82;86.52
65374;SHT31;52070;53.760;9.678;2022-11-11T08:15:14;10.85;86.66
65374;SHT31;52070;53.760;9.678;2022-11-11T08:17:40;10.85;86.74
65374;SHT31;52070;53.760;9.678;2022-11-11T08:20:09;10.92;86.78
65374;SHT31;52070;53.760;9.678;2022-11-11T08:22:36;10.95;86.67
65374;SHT31;52070;53.760;9.678;2022-11-11T08:25:05;10.94;86.61
65374;SHT31;52070;53.760;9.678;2022-11-11T08:27:34;10.94;86.76
65374;SHT31;52070;53.760;9.678;2022-11-11T08:30:03;11.01;86.86
65374;SHT31;52070;53.760;9.678;2022-11-11T08:32:30;11.07;86.65
65374;SHT31;52070;53.760;9.678;2022-11-11T08:34:57;11.07;86.58
65374;SHT31;52070;53.760;9.678;2022-11-11T08:37:24;11.11;86.73
65374;SHT31;52070;53.760;9.678;2022-11-11T08:39:51;11.11;86.73
65374;SHT31;52070;53.760;9.678;2022-11-11T08:42:18;11.12;86.82
65374;SHT31;52070;53.760;9.678;2022-11-11T08:44:46;11.14;86.83
65374;SHT31;52070;53.760;9.678;2022-11-11T08:47:13;11.12;86.92
65374;SHT31;52070;53.760;9.678;2022-11-11T08:49:40;11.11;87.10
65374;SHT31;52070;53.760;9.678;2022-11-11T08:52:08;11.05;87.37
65374;SHT31;52070;53.760;9.678;2022-11-11T08:54:35;11.04;87.61
65374;SHT31;52070;53.760;9.678;2022-11-11T08:57:02;11.08;87.68
65374;SHT31;52070;53.760;9.678;2022-11-11T08:59:29;11.11;87.72
65374;SHT31;52070;53.760;9.678;2022-11-11T09:01:57;11.09;87.61
65374;SHT31;52070;53.760;9.678;2022-11-11T09:04:24;11.08;87.63
65374;SHT31;52070;53.760;9.678;2022-11-11T09:06:51;11.09;87.74
65374;SHT31;52070;53.760;9.678;2022-11-11T09:09:18;11.12;87.77
65374;SHT31;52070;53.760;9.678;2022-11-11T09:11:45;11.05;87.78
65374;SHT31;52070;53.760;9.678;2022-11-11T09:14:12;11.08;88.00
65374;SHT31;52070;53.760;9.678;2022-11-11T09:16:39;11.09;87.95
65374;SHT31;52070;53.760;9.678;2022-11-11T09:19:07;11.07;88.07
65374;SHT31;52070;53.760;9.678;2022-11-11T09:21:34;11.04;88.36
65374;SHT31;52070;53.760;9.678;2022-11-11T09:24:01;11.07;88.40
65374;SHT31;52070;53.760;9.678;2022-11-11T09:26:28;11.07;88.46
65374;SHT31;52070;53.760;9.678;2022-11-11T09:28:55;11.08;88.48
65374;SHT31;52070;53.760;9.678;2022-11-11T09:31:22;10.99;88.57
65374;SHT31;52070;53.760;9.678;2022-11-11T09:33:49;11.02;88.85
65374;SHT31;52070;53.760;9.678;2022-11-11T09:36:18;10.99;88.90
65374;SHT31;52070;53.760;9.678;2022-11-11T09:38:46;11.01;89.05
65374;SHT31;52070;53.760;9.678;2022-11-11T09:41:18;11.05;89.14
65374;SHT31;52070;53.760;9.678;2022-11-11T09:43:51;11.02;89.08
65374;SHT31;52070;53.760;9.678;2022-11-11T09:46:38;11.05;89.19
65374;SHT31;52070;53.760;9.678;2022-11-11T09:49:30;11.07;89.35
65374;SHT31;52070;53.760;9.678;2022-11-11T09:52:08;11.08;89.26
65374;SHT31;52070;53.760;9.678;2022-11-11T09:54:40;11.12;89.31
65374;SHT31;52070;53.760;9.678;2022-11-11T09:57:14;11.15;89.22
65374;SHT31;52070;53.760;9.678;2022-11-11T09:59:46;11.18;89.16
65374;SHT31;52070;53.760;9.678;2022-11-11T10:02:19;11.19;88.98
65374;SHT31;52070;53.760;9.678;2022-11-11T10:04:55;11.21;88.93
65374;SHT31;52070;53.760;9.678;2022-11-11T10:07:34;11.19;88.77
65374;SHT31;52070;53.760;9.678;2022-11-11T10:10:10;11.19;88.78
65374;SHT31;52070;53.760;9.678;2022-11-11T10:12:41;11.28;88.63
65374;SHT31;52070;53.760;9.678;2022-11-11T10:15:13;11.32;88.30
65374;SHT31;52070;53.760;9.678;2022-11-11T10:17:48;11.39;88.19
65374;SHT31;52070;53.760;9.678;2022-11-11T10:20:23;11.42;87.70
65374;SHT31;52070;53.760;9.678;2022-11-11T10:22:58;11.47;87.26
65374;SHT31;52070;53.760;9.678;2022-11-11T10:25:26;11.52;86.98
65374;SHT31;52070;53.760;9.678;2022-11-11T10:27:56;11.60;86.84
65374;SHT31;52070;53.760;9.678;2022-11-11T10:30:25;11.62;86.35
65374;SHT31;52070;53.760;9.678;2022-11-11T10:32:56;11.65;86.33
65374;SHT31;52070;53.760;9.678;2022-11-11T10:35:25;11.74;85.98
65374;SHT31;52070;53.760;9.678;2022-11-11T10:38:05;11.83;85.48
65374;SHT31;52070;53.760;9.678;2022-11-11T10:40:42;11.89;85.09
65374;SHT31;52070;53.760;9.678;2022-11-11T10:43:20;11.93;84.72
65374;SHT31;52070;53.760;9.678;2022-11-11T10:45:53;12.03;83.87
65374;SHT31;52070;53.760;9.678;2022-11-11T10:48:30;12.07;83.49
65374;SHT31;52070;53.760;9.678;2022-11-11T10:51:01;12.07;82.57
65374;SHT31;52070;53.760;9.678;2022-11-11T10:53:34;12.12;82.13
65374;SHT31;52070;53.760;9.678;2022-11-11T10:56:10;12.14;82.08
65374;SHT31;52070;53.760;9.678;2022-11-11T10:58:46;12.20;82.10
65374;SHT31;52070;53.760;9.678;2022-11-11T11:01:20;12.25;82.04
65374;SHT31;52070;53.760;9.678;2022-11-11T11:03:54;12.28;81.58
65374;SHT31;52070;53.760;9.678;2022-11-11T11:06:25;12.30;81.43
65374;SHT31;52070;53.760;9.678;2022-11-11T11:08:58;12.28;81.26
65374;SHT31;52070;53.760;9.678;2022-11-11T11:11:29;12.25;81.09
65374;SHT31;52070;53.760;9.678;2022-11-11T11:13:59;12.23;81.21
65374;SHT31;52070;53.760;9.678;2022-11-11T11:16:32;12.31;81.21
65374;SHT31;52070;53.760;9.678;2022-11-11T11:19:18;12.37;80.75
65374;SHT31;52070;53.760;9.678;2022-11-11T11:21:53;12.35;80.77
65374;SHT31;52070;53.760;9.678;2022-11-11T11:24:24;12.34;80.72
65374;SHT31;52070;53.760;9.678;2022-11-11T11:26:54;12.31;80.98
65374;SHT31;52070;53.760;9.678;2022-11-11T11:29:29;12.37;80.85
65374;SHT31;52070;53.760;9.678;2022-11-11T11:32:11;12.37;80.64
65374;SHT31;52070;53.760;9.678;2022-11-11T11:34:46;12.35;80.70
65374;SHT31;52070;53.760;9.678;2022-11-11T11:37:14;12.31;80.22
65374;SHT31;52070;53.760;9.678;2022-11-11T11:39:43;12.30;80.81
65374;SHT31;52070;53.760;9.678;2022-11-11T11:42:28;12.40;80.92
65374;SHT31;52070;53.760;9.678;2022-11-11T11:44:56;12.41;80.68
65374;SHT31;52070;53.760;9.678;2022-11-11T11:47:33;12.41;80.31
65374;SHT31;52070;53.760;9.678;2022-11-11T11:50:15;12.40;80.43
65374;SHT31;52070;53.760;9.678;2022-11-11T11:52:52;12.45;80.47
65374;SHT31;52070;53.760;9.678;2022-11-11T11:55:30;12.40;80.04
65374;SHT31;52070;53.760;9.678;2022-11-11T11:58:11;12.37;80.14
65374;SHT31;52070;53.760;9.678;2022-11-11T12:00:52;12.34;80.38
65374;SHT31;52070;53.760;9.678;2022-11-11T12:04:00;12.41;80.62
65374;SHT31;52070;53.760;9.678;2022-11-11T12:06:38;12.44;80.26
65374;SHT31;52070;53.760;9.678;2022-11-11T12:09:18;12.44;80.15
65374;SHT31;52070;53.760;9.678;2022-11-11T12:11:56;12.37;80.38
65374;SHT31;52070;53.760;9.678;2022-11-11T12:14:39;12.33;80.52
65374;SHT31;52070;53.760;9.678;2022-11-11T12:17:19;12.38;80.77
65374;SHT31;52070;53.760;9.678;2022-11-11T12:19:56;12.41;80.63
65374;SHT31;52070;53.760;9.678;2022-11-11T12:22:38;12.38;80.63
65374;SHT31;52070;53.760;9.678;2022-11-11T12:25:12;12.34;80.67
65374;SHT31;52070;53.760;9.678;2022-11-11T12:27:49;12.31;80.94
65374;SHT31;52070;53.760;9.678;2022-11-11T12:30:21;12.33;80.81
65374;SHT31;52070;53.760;9.678;2022-11-11T12:33:17;12.25;81.07
65374;SHT31;52070;53.760;9.678;2022-11-11T12:35:56;12.34;81.59
65374;SHT31;52070;53.760;9.678;2022-11-11T12:38:35;12.37;81.41
65374;SHT31;52070;53.760;9.678;2022-11-11T12:41:12;12.28;81.08
65374;SHT31;52070;53.760;9.678;2022-11-11T12:43:48;12.24;81.11
65374;SHT31;52070;53.760;9.678;2022-11-11T12:46:25;12.23;81.33
65374;SHT31;52070;53.760;9.678;2022-11-11T12:49:02;12.17;81.16
65374;SHT31;52070;53.760;9.678;2022-11-11T12:51:43;12.08;81.57
65374;SHT31;52070;53.760;9.678;2022-11-11T12:54:21;12.03;81.77
65374;SHT31;52070;53.760;9.678;2022-11-11T12:56:55;12.08;82.31
65374;SHT31;52070;53.760;9.678;2022-11-11T12:59:36;12.16;82.01
65374;SHT31;52070;53.760;9.678;2022-11-11T13:02:19;12.13;81.72
65374;SHT31;52070;53.760;9.678;2022-11-11T13:04:58;12.16;81.73
65374;SHT31;52070;53.760;9.678;2022-11-11T13:07:52;12.14;81.79
65374;SHT31;52070;53.760;9.678;2022-11-11T13:10:26;12.12;81.92
65374;SHT31;52070;53.760;9.678;2022-11-11T13:13:01;12.04;82.02
65374;SHT31;52070;53.760;9.678;2022-11-11T13:15:30;12.07;82.27
65374;SHT31;52070;53.760;9.678;2022-11-11T13:17:58;12.08;82.33
65374;SHT31;52070;53.760;9.678;2022-11-11T13:20:42;12.14;82.42
65374;SHT31;52070;53.760;9.678;2022-11-11T13:23:12;12.16;81.98
65374;SHT31;52070;53.760;9.678;2022-11-11T13:25:44;12.13;81.93
65374;SHT31;52070;53.760;9.678;2022-11-11T13:28:16;12.13;81.86
65374;SHT31;52070;53.760;9.678;2022-11-11T13:30:59;12.13;81.93
65374;SHT31;52070;53.760;9.678;2022-11-11T13:33:36;12.03;81.86
65374;SHT31;52070;53.760;9.678;2022-11-11T13:36:07;11.98;82.19
65374;SHT31;52070;53.760;9.678;2022-11-11T13:38:38;11.93;82.35
65374;SHT31;52070;53.760;9.678;2022-11-11T13:41:10;11.90;82.61
65374;SHT31;52070;53.760;9.678;2022-11-11T13:43:41;11.93;82.62
65374;SHT31;52070;53.760;9.678;2022-11-11T13:46:31;11.90;82.42
65374;SHT31;52070;53.760;9.678;2022-11-11T13:48:59;11.86;82.36
65374;SHT31;52070;53.760;9.678;2022-11-11T13:51:32;11.87;82.70
65374;SHT31;52070;53.760;9.678;2022-11-11T13:54:02;11.89;82.77
65374;SHT31;52070;53.760;9.678;2022-11-11T13:56:35;11.94;82.44
65374;SHT31;52070;53.760;9.678;2022-11-11T13:59:05;11.86;82.55
65374;SHT31;52070;53.760;9.678;2022-11-11T14:01:36;11.86;82.53
65374;SHT31;52070;53.760;9.678;2022-11-11T14:04:03;11.86;82.73
65374;SHT31;52070;53.760;9.678;2022-11-11T14:06:49;11.77;82.88
65374;SHT31;52070;53.760;9.678;2022-11-11T14:09:54;11.72;83.03
65374;SHT31;52070;53.760;9.678;2022-11-11T14:12:39;11.74;83.24
65374;SHT31;52070;53.760;9.678;2022-11-11T14:15:35;11.70;83.18
65374;SHT31;52070;53.760;9.678;2022-11-11T14:18:07;11.69;83.05
65374;SHT31;52070;53.760;9.678;2022-11-11T14:20:37;11.73;83.15
65374;SHT31;52070;53.760;9.678;2022-11-11T14:23:27;11.74;83.05
65374;SHT31;52070;53.760;9.678;2022-11-11T14:26:21;11.70;83.13
65374;SHT31;52070;53.760;9.678;2022-11-11T14:28:52;11.66;83.14
65374;SHT31;52070;53.760;9.678;2022-11-11T14:35:18;11.70;83.40
65374;SHT31;52070;53.760;9.678;2022-11-11T14:38:21;11.70;83.30
65374;SHT31;52070;53.760;9.678;2022-11-11T14:40:50;11.70;83.31
65374;SHT31;52070;53.760;9.678;2022-11-11T14:43:37;11.72;83.12
65374;SHT31;52070;53.760;9.678;2022-11-11T14:46:07;11.69;83.33
65374;SHT31;52070;53.760;9.678;2022-11-11T14:49:00;11.74;83.34
65374;SHT31;52070;53.760;9.678;2022-11-11T14:51:41;11.67;83.27
65374;SHT31;52070;53.760;9.678;2022-11-11T14:57:03;11.70;83.58
65374;SHT31;52070;53.760;9.678;2022-11-11T14:59:32;11.69;83.62
65374;SHT31;52070;53.760;9.678;2022-11-11T15:02:01;11.69;83.59
65374;SHT31;52070;53.760;9.678;2022-11-11T15:04:36;11.72;83.46
65374;SHT31;52070;53.760;9.678;2022-11-11T15:07:17;11.73;83.33
65374;SHT31;52070;53.760;9.678;2022-11-11T15:09:56;11.72;83.17
65374;SHT31;52070;53.760;9.678;2022-11-11T15:12:48;11.69;83.10
65374;SHT31;52070;53.760;9.678;2022-11-11T15:15:23;11.70;83.13
65374;SHT31;52070;53.760;9.678;2022-11-11T15:17:54;11.72;82.81
65374;SHT31;52070;53.760;9.678;2022-11-11T15:20:53;11.73;82.36
65374;SHT31;52070;53.760;9.678;2022-11-11T15:23:29;11.77;81.38
65374;SHT31;52070;53.760;9.678;2022-11-11T15:26:02;11.83;81.49
65374;SHT31;52070;53.760;9.678;2022-11-11T15:28:52;11.86;81.75
65374;SHT31;52070;53.760;9.678;2022-11-11T15:31:27;11.83;82.17
65374;SHT31;52070;53.760;9.678;2022-11-11T15:34:01;11.79;82.36
65374;SHT31;52070;53.760;9.678;2022-11-11T15:36:46;11.79;82.63
65374;SHT31;52070;53.760;9.678;2022-11-11T15:39:17;11.77;82.90
65374;SHT31;52070;53.760;9.678;2022-11-11T15:41:47;11.77;82.86
65374;SHT31;52070;53.760;9.678;2022-11-11T15:44:18;11.76;82.79
65374;SHT31;52070;53.760;9.678;2022-11-11T15:46:47;11.72;82.95
65374;SHT31;52070;53.760;9.678;2022-11-11T15:49:38;11.73;82.92
65374;SHT31;52070;53.760;9.678;2022-11-11T15:52:23;11.69;83.21
65374;SHT31;52070;53.760;9.678;2022-11-11T15:54:52;11.74;83.20
65374;SHT31;52070;53.760;9.678;2022-11-11T15:57:24;11.72;83.22
65374;SHT31;52070;53.760;9.678;2022-11-11T15:59:52;11.66;83.50
65374;SHT31;52070;53.760;9.678;2022-11-11T16:02:20;11.65;83.76
65374;SHT31;52070;53.760;9.678;2022-11-11T16:04:51;11.67;83.84
65374;SHT31;52070;53.760;9.678;2022-11-11T16:07:20;11.62;83.90
65374;SHT31;52070;53.760;9.678;2022-11-11T16:09:49;11.63;84.14
65374;SHT31;52070;53.760;9.678;2022-11-11T16:12:21;11.65;84.00